createdAt,value
2016-11-22T00:00:17.158Z,25.23
2016-11-22T00:00:57.858Z,25.36
2016-11-22T00:01:38.503Z,25.24
2016-11-22T00:02:19.190Z,25.21
2016-11-22T00:02:59.877Z,25.25
2016-11-22T00:03:40.592Z,25.25
2016-11-22T00:04:21.236Z,25.17
2016-11-22T00:05:01.922Z,25.21
2016-11-22T00:05:42.595Z,25.28
2016-11-22T00:06:23.230Z,25.28
2016-11-22T00:07:03.960Z,25.21
2016-11-22T00:07:44.631Z,25.24
2016-11-22T00:08:25.280Z,25.27
2016-11-22T00:09:06.014Z,25.25
2016-11-22T00:09:46.694Z,25.18
2016-11-22T00:10:27.358Z,25.21
2016-11-22T00:11:08.020Z,25.24
2016-11-22T00:11:48.725Z,25.24
2016-11-22T00:12:29.437Z,25.25
2016-11-22T00:13:10.099Z,25.24
2016-11-22T00:13:50.808Z,25.24
2016-11-22T00:14:31.503Z,25.15
2016-11-22T00:15:12.169Z,25.25
2016-11-22T00:15:52.831Z,25.23
2016-11-22T00:16:33.489Z,25.24
2016-11-22T00:17:14.120Z,25.14
2016-11-22T00:17:54.787Z,25.23
2016-11-22T00:18:35.487Z,25.21
2016-11-22T00:19:16.138Z,25.14
2016-11-22T00:19:56.829Z,25.18
2016-11-22T00:20:37.491Z,25.18
2016-11-22T00:21:18.191Z,25.25
2016-11-22T00:21:58.859Z,25.18
2016-11-22T00:22:39.563Z,25.18
2016-11-22T00:23:20.250Z,25.21
2016-11-22T00:24:00.890Z,25.24
2016-11-22T00:24:41.568Z,25.23
2016-11-22T00:25:22.254Z,25.15
2016-11-22T00:26:02.919Z,25.14
2016-11-22T00:26:43.585Z,25.15
2016-11-22T00:27:24.255Z,25.14
2016-11-22T00:28:04.914Z,25.2
2016-11-22T00:28:45.598Z,25.2
2016-11-22T00:29:26.283Z,25.25
2016-11-22T00:30:06.964Z,25.24
2016-11-22T00:30:47.692Z,25.21
2016-11-22T00:31:28.377Z,25.17
2016-11-22T00:32:09.037Z,25.23
2016-11-22T00:32:49.740Z,25.21
2016-11-22T00:33:30.440Z,25.2
2016-11-22T00:34:11.129Z,25.21
2016-11-22T00:34:51.785Z,25.1
2016-11-22T00:35:32.550Z,25.23
2016-11-22T00:36:13.254Z,25.15
2016-11-22T00:36:53.932Z,25.17
2016-11-22T00:37:34.629Z,25.17
2016-11-22T00:38:15.333Z,25.14
2016-11-22T00:38:56.039Z,25.2
2016-11-22T00:39:36.739Z,25.24
2016-11-22T00:40:17.443Z,25.2
2016-11-22T00:40:58.137Z,25.17
2016-11-22T00:41:38.862Z,25.17
2016-11-22T00:42:19.523Z,25.21
2016-11-22T00:43:00.177Z,25.24
2016-11-22T00:43:40.926Z,25.23
2016-11-22T00:44:21.625Z,25.2
2016-11-22T00:45:02.323Z,25.2
2016-11-22T00:45:43.025Z,25.23
2016-11-22T00:46:23.745Z,25.17
2016-11-22T00:47:04.397Z,25.1
2016-11-22T00:47:45.064Z,25.14
2016-11-22T00:48:25.728Z,25.14
2016-11-22T00:49:06.399Z,25.17
2016-11-22T00:49:47.047Z,25.2
2016-11-22T00:50:27.786Z,25.15
2016-11-22T00:51:08.437Z,25.14
2016-11-22T00:51:49.112Z,25.17
2016-11-22T00:52:29.797Z,25.21
2016-11-22T00:53:10.490Z,25.18
2016-11-22T00:53:51.166Z,25.14
2016-11-22T00:54:31.815Z,25.2
2016-11-22T00:55:12.480Z,25.2
2016-11-22T00:55:53.141Z,25.2
2016-11-22T00:56:33.857Z,25.14
2016-11-22T00:57:14.580Z,25.21
2016-11-22T00:57:55.226Z,25.13
2016-11-22T00:58:35.866Z,25.18
2016-11-22T00:59:16.544Z,25.2
2016-11-22T00:59:57.235Z,25.18
2016-11-22T01:00:37.909Z,25.13
2016-11-22T01:01:18.584Z,25.21
2016-11-22T01:01:59.227Z,25.15
2016-11-22T01:02:39.922Z,25.15
2016-11-22T01:03:20.616Z,25.17
2016-11-22T01:04:01.268Z,25.17
2016-11-22T01:04:41.955Z,25.23
2016-11-22T01:05:22.615Z,25.09
2016-11-22T01:06:03.327Z,25.13
2016-11-22T01:06:44.031Z,25.18
2016-11-22T01:07:24.711Z,25.15
2016-11-22T01:08:05.358Z,25.1
2016-11-22T01:08:45.993Z,25.13
2016-11-22T01:09:26.674Z,25.2
2016-11-22T01:10:07.339Z,25.18
2016-11-22T01:10:48.051Z,25.1
2016-11-22T01:11:28.688Z,25.14
2016-11-22T01:12:09.412Z,25.09
2016-11-22T01:12:50.061Z,25.13
2016-11-22T01:13:30.767Z,25.09
2016-11-22T01:14:11.474Z,25.2
2016-11-22T01:14:52.145Z,25.18
2016-11-22T01:15:32.848Z,25.15
2016-11-22T01:16:13.546Z,25.14
2016-11-22T01:16:54.175Z,25.14
2016-11-22T01:17:34.826Z,25.1
2016-11-22T01:18:15.535Z,25.08
2016-11-22T01:18:56.260Z,25.15
2016-11-22T01:19:36.952Z,25.15
2016-11-22T01:20:17.609Z,25.15
2016-11-22T01:20:58.358Z,25.18
2016-11-22T01:21:39.067Z,25.18
2016-11-22T01:22:19.772Z,25.14
2016-11-22T01:23:00.453Z,25.17
2016-11-22T01:23:41.089Z,25.13
2016-11-22T01:24:21.776Z,25.13
2016-11-22T01:25:02.413Z,25.15
2016-11-22T01:25:43.097Z,25.15
2016-11-22T01:26:23.731Z,25.13
2016-11-22T01:27:04.455Z,25.14
2016-11-22T01:27:45.095Z,25.1
2016-11-22T01:28:25.796Z,25.17
2016-11-22T01:29:06.462Z,25.08
2016-11-22T01:29:47.160Z,25.18
2016-11-22T01:30:27.771Z,25.13
2016-11-22T01:31:08.446Z,25.08
2016-11-22T01:31:49.099Z,25.13
2016-11-22T01:32:29.765Z,25.14
2016-11-22T01:33:10.453Z,25.1
2016-11-22T01:33:51.191Z,25.14
2016-11-22T01:34:31.896Z,25.13
2016-11-22T01:35:12.595Z,25.09
2016-11-22T01:35:53.257Z,25.15
2016-11-22T01:36:33.931Z,25.18
2016-11-22T01:37:14.608Z,25.14
2016-11-22T01:37:55.285Z,25.1
2016-11-22T01:38:36.005Z,25.14
2016-11-22T01:39:16.629Z,25.18
2016-11-22T01:39:57.315Z,25.14
2016-11-22T01:40:38.000Z,25.15
2016-11-22T01:41:18.672Z,25.14
2016-11-22T01:41:59.337Z,25.18
2016-11-22T01:42:40.006Z,25.13
2016-11-22T01:43:20.726Z,25.08
2016-11-22T01:44:01.356Z,25.18
2016-11-22T01:44:42.087Z,25.08
2016-11-22T01:45:22.807Z,25.1
2016-11-22T01:46:03.467Z,25.13
2016-11-22T01:46:44.116Z,25.06
2016-11-22T01:47:24.832Z,25.13
2016-11-22T01:48:05.479Z,25.08
2016-11-22T01:48:46.160Z,25.1
2016-11-22T01:49:26.854Z,25.06
2016-11-22T01:50:07.496Z,25.08
2016-11-22T01:50:48.186Z,25.03
2016-11-22T01:51:28.848Z,25.13
2016-11-22T01:52:09.549Z,25.09
2016-11-22T01:52:50.221Z,25.1
2016-11-22T01:53:30.886Z,25.02
2016-11-22T01:54:11.557Z,25.08
2016-11-22T01:54:52.207Z,25.09
2016-11-22T01:55:32.877Z,25.06
2016-11-22T01:56:13.588Z,25.09
2016-11-22T01:56:54.216Z,25.08
2016-11-22T01:57:34.930Z,25.08
2016-11-22T01:58:15.622Z,25.09
2016-11-22T01:58:56.294Z,25.14
2016-11-22T01:59:36.968Z,25.06
2016-11-22T02:00:17.639Z,25.1
2016-11-22T02:00:58.300Z,25.02
2016-11-22T02:01:38.959Z,25.05
2016-11-22T02:02:19.624Z,25.03
2016-11-22T02:03:00.261Z,25.1
2016-11-22T02:03:40.932Z,24.96
2016-11-22T02:04:21.605Z,25
2016-11-22T02:05:02.247Z,24.98
2016-11-22T02:05:42.905Z,25.02
2016-11-22T02:06:23.585Z,25.05
2016-11-22T02:07:04.238Z,25.1
2016-11-22T02:07:44.888Z,25.06
2016-11-22T02:08:25.570Z,25.02
2016-11-22T02:09:06.249Z,25.03
2016-11-22T02:09:46.910Z,24.98
2016-11-22T02:10:27.596Z,25.06
2016-11-22T02:11:08.266Z,24.99
2016-11-22T02:11:48.965Z,24.99
2016-11-22T02:12:29.712Z,24.99
2016-11-22T02:13:10.410Z,25
2016-11-22T02:13:51.074Z,25.05
2016-11-22T02:14:31.777Z,25.02
2016-11-22T02:15:12.483Z,25
2016-11-22T02:15:53.128Z,25.06
2016-11-22T02:16:33.828Z,25.03
2016-11-22T02:17:14.470Z,25.02
2016-11-22T02:17:55.145Z,25.05
2016-11-22T02:18:35.845Z,24.99
2016-11-22T02:19:16.461Z,25
2016-11-22T02:19:57.176Z,24.96
2016-11-22T02:20:37.878Z,25.06
2016-11-22T02:21:18.516Z,25.05
2016-11-22T02:21:59.185Z,25
2016-11-22T02:22:39.911Z,24.96
2016-11-22T02:23:20.599Z,24.95
2016-11-22T02:24:01.305Z,24.95
2016-11-22T02:24:42.021Z,24.96
2016-11-22T02:25:22.714Z,25.03
2016-11-22T02:26:03.386Z,25
2016-11-22T02:26:44.078Z,24.96
2016-11-22T02:27:24.796Z,25
2016-11-22T02:28:05.521Z,24.98
2016-11-22T02:28:46.173Z,24.96
2016-11-22T02:29:26.837Z,24.96
2016-11-22T02:30:07.517Z,24.96
2016-11-22T02:30:48.174Z,24.93
2016-11-22T02:31:28.793Z,24.95
2016-11-22T02:32:09.457Z,25.02
2016-11-22T02:32:50.196Z,24.98
2016-11-22T02:33:30.870Z,24.98
2016-11-22T02:34:11.561Z,24.93
2016-11-22T02:34:52.242Z,24.98
2016-11-22T02:35:32.904Z,24.99
2016-11-22T02:36:13.569Z,25.05
2016-11-22T02:36:54.223Z,24.99
2016-11-22T02:37:34.896Z,25
2016-11-22T02:38:15.636Z,24.96
2016-11-22T02:38:56.336Z,24.93
2016-11-22T02:39:37.027Z,25.05
2016-11-22T02:40:17.708Z,24.98
2016-11-22T02:40:58.411Z,25
2016-11-22T02:41:39.088Z,25.05
2016-11-22T02:42:19.782Z,24.99
2016-11-22T02:43:00.470Z,24.98
2016-11-22T02:43:41.165Z,24.93
2016-11-22T02:44:21.871Z,24.91
2016-11-22T02:45:02.547Z,24.93
2016-11-22T02:45:43.244Z,24.96
2016-11-22T02:46:23.925Z,24.96
2016-11-22T02:47:04.620Z,24.96
2016-11-22T02:47:45.318Z,24.96
2016-11-22T02:48:25.986Z,24.96
2016-11-22T02:49:06.677Z,24.91
2016-11-22T02:49:47.343Z,24.9
2016-11-22T02:50:28.031Z,24.88
2016-11-22T02:51:08.747Z,24.96
2016-11-22T02:51:49.437Z,24.91
2016-11-22T02:52:30.095Z,24.98
2016-11-22T02:53:10.793Z,24.98
2016-11-22T02:53:51.463Z,24.91
2016-11-22T02:54:32.133Z,24.9
2016-11-22T02:55:12.863Z,24.98
2016-11-22T02:55:53.512Z,25.03
2016-11-22T02:56:34.198Z,25.02
2016-11-22T02:57:14.906Z,24.95
2016-11-22T02:57:55.534Z,24.98
2016-11-22T02:58:36.200Z,24.93
2016-11-22T02:59:16.824Z,24.88
2016-11-22T02:59:57.519Z,24.93
2016-11-22T03:00:38.193Z,24.88
2016-11-22T03:01:18.860Z,24.91
2016-11-22T03:01:59.531Z,24.98
2016-11-22T03:02:40.170Z,24.9
2016-11-22T03:03:20.875Z,24.93
2016-11-22T03:04:01.557Z,24.95
2016-11-22T03:04:42.216Z,24.93
2016-11-22T03:05:22.893Z,24.95
2016-11-22T03:06:03.566Z,24.9
2016-11-22T03:06:44.283Z,24.91
2016-11-22T03:07:24.986Z,24.9
2016-11-22T03:08:05.647Z,24.91
2016-11-22T03:08:46.286Z,24.9
2016-11-22T03:09:26.962Z,24.91
2016-11-22T03:10:07.691Z,24.9
2016-11-22T03:10:48.346Z,24.93
2016-11-22T03:11:29.035Z,24.93
2016-11-22T03:12:09.777Z,24.95
2016-11-22T03:12:50.446Z,24.91
2016-11-22T03:13:31.133Z,24.98
2016-11-22T03:14:11.848Z,24.95
2016-11-22T03:14:52.529Z,24.91
2016-11-22T03:15:33.148Z,24.9
2016-11-22T03:16:13.829Z,24.96
2016-11-22T03:16:54.555Z,24.91
2016-11-22T03:17:35.227Z,24.93
2016-11-22T03:18:15.905Z,24.91
2016-11-22T03:18:56.583Z,24.98
2016-11-22T03:19:37.286Z,24.9
2016-11-22T03:20:17.939Z,24.96
2016-11-22T03:20:58.636Z,24.9
2016-11-22T03:21:39.316Z,24.91
2016-11-22T03:22:20.048Z,24.93
2016-11-22T03:23:00.667Z,24.88
2016-11-22T03:23:41.315Z,24.88
2016-11-22T03:24:22.017Z,24.91
2016-11-22T03:25:02.703Z,24.95
2016-11-22T03:25:43.397Z,24.91
2016-11-22T03:26:24.032Z,24.9
2016-11-22T03:27:04.727Z,24.96
2016-11-22T03:27:45.421Z,24.88
2016-11-22T03:28:26.150Z,24.93
2016-11-22T03:29:06.810Z,24.9
2016-11-22T03:29:47.457Z,24.88
2016-11-22T03:30:28.144Z,24.91
2016-11-22T03:31:08.831Z,24.88
2016-11-22T03:31:49.526Z,24.95
2016-11-22T03:32:30.193Z,24.87
2016-11-22T03:33:10.878Z,24.84
2016-11-22T03:33:51.558Z,24.85
2016-11-22T03:34:32.248Z,24.88
2016-11-22T03:35:12.934Z,24.87
2016-11-22T03:35:53.612Z,24.98
2016-11-22T03:36:34.299Z,24.88
2016-11-22T03:37:14.966Z,24.93
2016-11-22T03:37:55.668Z,24.88
2016-11-22T03:38:36.381Z,24.91
2016-11-22T03:39:17.014Z,24.93
2016-11-22T03:39:57.676Z,24.93
2016-11-22T03:40:38.335Z,24.85
2016-11-22T03:41:19.003Z,24.95
2016-11-22T03:41:59.688Z,24.88
2016-11-22T03:42:40.316Z,24.88
2016-11-22T03:43:21.033Z,24.91
2016-11-22T03:44:01.771Z,24.87
2016-11-22T03:44:42.464Z,24.88
2016-11-22T03:45:23.158Z,24.93
2016-11-22T03:46:03.795Z,24.9
2016-11-22T03:46:44.451Z,24.88
2016-11-22T03:47:25.121Z,24.87
2016-11-22T03:48:05.783Z,24.93
2016-11-22T03:48:46.474Z,24.91
2016-11-22T03:49:27.127Z,24.87
2016-11-22T03:50:07.861Z,24.91
2016-11-22T03:50:48.539Z,24.83
2016-11-22T03:51:29.194Z,24.88
2016-11-22T03:52:09.873Z,24.85
2016-11-22T03:52:50.561Z,24.91
2016-11-22T03:53:31.264Z,24.83
2016-11-22T03:54:11.974Z,24.9
2016-11-22T03:54:52.607Z,24.88
2016-11-22T03:55:33.315Z,24.91
2016-11-22T03:56:13.964Z,24.9
2016-11-22T03:56:54.669Z,24.93
2016-11-22T03:57:35.335Z,24.87
2016-11-22T03:58:16.046Z,24.93
2016-11-22T03:58:56.744Z,24.87
2016-11-22T03:59:37.408Z,24.93
2016-11-22T04:00:18.086Z,24.91
2016-11-22T04:00:58.779Z,24.9
2016-11-22T04:01:39.458Z,24.91
2016-11-22T04:02:20.170Z,24.93
2016-11-22T04:03:00.844Z,24.85
2016-11-22T04:03:41.496Z,24.87
2016-11-22T04:04:22.194Z,24.88
2016-11-22T04:05:02.881Z,24.93
2016-11-22T04:05:43.580Z,24.83
2016-11-22T04:06:24.268Z,24.93
2016-11-22T04:07:04.948Z,24.88
2016-11-22T04:07:45.576Z,24.93
2016-11-22T04:08:26.244Z,24.9
2016-11-22T04:09:06.904Z,24.9
2016-11-22T04:09:47.559Z,24.91
2016-11-22T04:10:28.261Z,24.91
2016-11-22T04:11:08.940Z,24.87
2016-11-22T04:11:49.635Z,24.93
2016-11-22T04:12:30.327Z,24.87
2016-11-22T04:13:11.043Z,24.95
2016-11-22T04:13:51.703Z,24.87
2016-11-22T04:14:32.413Z,24.96
2016-11-22T04:15:13.081Z,24.87
2016-11-22T04:15:53.717Z,24.81
2016-11-22T04:16:34.427Z,24.81
2016-11-22T04:17:15.061Z,24.87
2016-11-22T04:17:56.354Z,24.84
2016-11-22T04:18:37.062Z,24.81
2016-11-22T04:19:17.694Z,24.85
2016-11-22T04:19:58.379Z,24.9
2016-11-22T04:20:39.033Z,24.81
2016-11-22T04:21:19.774Z,24.9
2016-11-22T04:22:00.414Z,24.87
2016-11-22T04:22:41.059Z,24.78
2016-11-22T04:23:21.787Z,24.88
2016-11-22T04:24:02.432Z,24.81
2016-11-22T04:24:43.147Z,24.9
2016-11-22T04:25:23.842Z,24.84
2016-11-22T04:26:04.519Z,24.76
2016-11-22T04:26:45.153Z,24.76
2016-11-22T04:27:25.851Z,24.85
2016-11-22T04:28:06.528Z,24.83
2016-11-22T04:28:47.227Z,24.78
2016-11-22T04:29:27.885Z,24.91
2016-11-22T04:30:08.564Z,24.73
2016-11-22T04:30:49.249Z,24.88
2016-11-22T04:31:29.914Z,24.9
2016-11-22T04:32:10.591Z,24.91
2016-11-22T04:32:51.287Z,24.91
2016-11-22T04:33:31.970Z,24.85
2016-11-22T04:34:12.660Z,24.9
2016-11-22T04:34:53.343Z,24.84
2016-11-22T04:35:34.006Z,24.78
2016-11-22T04:36:14.673Z,24.87
2016-11-22T04:36:55.376Z,24.9
2016-11-22T04:37:36.085Z,24.84
2016-11-22T04:38:16.817Z,24.83
2016-11-22T04:38:57.481Z,24.91
2016-11-22T04:39:38.185Z,24.77
2016-11-22T04:40:18.884Z,24.85
2016-11-22T04:40:59.525Z,24.91
2016-11-22T04:41:40.227Z,24.84
2016-11-22T04:42:20.891Z,24.77
2016-11-22T04:43:01.570Z,24.76
2016-11-22T04:43:42.259Z,24.76
2016-11-22T04:44:22.899Z,24.73
2016-11-22T04:45:03.541Z,24.76
2016-11-22T04:45:44.231Z,24.88
2016-11-22T04:46:24.951Z,24.88
2016-11-22T04:47:05.659Z,24.76
2016-11-22T04:47:46.333Z,24.78
2016-11-22T04:48:27.040Z,24.81
2016-11-22T04:49:07.741Z,24.77
2016-11-22T04:49:48.384Z,24.81
2016-11-22T04:50:29.101Z,24.78
2016-11-22T04:51:09.759Z,24.78
2016-11-22T04:51:50.494Z,24.73
2016-11-22T04:52:31.129Z,24.8
2016-11-22T04:53:11.757Z,24.73
2016-11-22T04:53:52.451Z,24.76
2016-11-22T04:54:33.155Z,24.76
2016-11-22T04:55:13.850Z,24.8
2016-11-22T04:55:54.511Z,24.71
2016-11-22T04:56:35.234Z,24.84
2016-11-22T04:57:15.894Z,24.76
2016-11-22T04:57:56.600Z,24.73
2016-11-22T04:58:37.289Z,24.77
2016-11-22T04:59:17.947Z,24.71
2016-11-22T04:59:58.663Z,24.78
2016-11-22T05:00:39.316Z,24.78
2016-11-22T05:01:20.542Z,24.84
2016-11-22T05:02:00.657Z,24.78
2016-11-22T05:02:41.291Z,24.8
2016-11-22T05:03:21.956Z,24.78
2016-11-22T05:04:02.655Z,24.78
2016-11-22T05:04:43.314Z,24.76
2016-11-22T05:05:23.967Z,24.88
2016-11-22T05:06:04.666Z,24.73
2016-11-22T05:06:45.293Z,24.76
2016-11-22T05:07:25.990Z,24.81
2016-11-22T05:08:06.652Z,24.87
2016-11-22T05:08:47.367Z,24.73
2016-11-22T05:09:28.023Z,24.71
2016-11-22T05:10:08.729Z,24.76
2016-11-22T05:10:49.429Z,24.77
2016-11-22T05:11:30.092Z,24.81
2016-11-22T05:12:10.749Z,24.71
2016-11-22T05:12:51.518Z,24.8
2016-11-22T05:13:32.194Z,24.76
2016-11-22T05:14:12.921Z,24.73
2016-11-22T05:14:53.619Z,24.78
2016-11-22T05:15:34.330Z,24.84
2016-11-22T05:16:14.973Z,24.78
2016-11-22T05:16:55.646Z,24.8
2016-11-22T05:17:36.299Z,24.81
2016-11-22T05:18:16.990Z,24.73
2016-11-22T05:18:57.696Z,24.8
2016-11-22T05:19:38.411Z,24.76
2016-11-22T05:20:19.122Z,24.81
2016-11-22T05:20:59.824Z,24.76
2016-11-22T05:21:40.507Z,24.76
2016-11-22T05:22:21.228Z,24.77
2016-11-22T05:23:01.931Z,24.77
2016-11-22T05:23:42.604Z,24.76
2016-11-22T05:24:23.293Z,24.81
2016-11-22T05:25:04.033Z,24.76
2016-11-22T05:25:44.717Z,24.8
2016-11-22T05:26:25.390Z,24.73
2016-11-22T05:27:06.085Z,24.8
2016-11-22T05:27:46.748Z,24.76
2016-11-22T05:28:27.452Z,24.73
2016-11-22T05:29:08.091Z,24.78
2016-11-22T05:29:48.818Z,24.81
2016-11-22T05:30:29.485Z,24.78
2016-11-22T05:31:10.137Z,24.8
2016-11-22T05:31:50.855Z,24.78
2016-11-22T05:32:31.509Z,24.78
2016-11-22T05:33:12.168Z,24.78
2016-11-22T05:33:52.870Z,24.73
2016-11-22T05:34:33.512Z,24.76
2016-11-22T05:35:14.198Z,24.8
2016-11-22T05:35:54.969Z,24.73
2016-11-22T05:36:35.664Z,24.78
2016-11-22T05:37:16.346Z,24.77
2016-11-22T05:37:56.970Z,24.78
2016-11-22T05:38:37.670Z,24.78
2016-11-22T05:39:18.323Z,24.77
2016-11-22T05:39:58.970Z,24.78
2016-11-22T05:40:39.667Z,24.8
2016-11-22T05:41:20.379Z,24.8
2016-11-22T05:42:01.009Z,24.77
2016-11-22T05:42:41.676Z,24.77
2016-11-22T05:43:22.381Z,24.8
2016-11-22T05:44:03.047Z,24.85
2016-11-22T05:44:43.770Z,24.77
2016-11-22T05:45:24.393Z,24.76
2016-11-22T05:46:05.077Z,24.78
2016-11-22T05:46:45.744Z,24.8
2016-11-22T05:47:26.406Z,24.73
2016-11-22T05:48:07.110Z,24.81
2016-11-22T05:48:47.737Z,24.73
2016-11-22T05:49:28.386Z,24.77
2016-11-22T05:50:09.098Z,24.71
2016-11-22T05:50:49.793Z,24.76
2016-11-22T05:51:30.479Z,24.67
2016-11-22T05:52:11.158Z,24.81
2016-11-22T05:52:51.844Z,24.71
2016-11-22T05:53:32.557Z,24.76
2016-11-22T05:54:13.218Z,24.69
2016-11-22T05:54:53.927Z,24.71
2016-11-22T05:55:34.625Z,24.67
2016-11-22T05:56:15.326Z,24.71
2016-11-22T05:56:55.975Z,24.73
2016-11-22T05:57:36.645Z,24.77
2016-11-22T05:58:17.329Z,24.73
2016-11-22T05:58:58.028Z,24.76
2016-11-22T05:59:38.708Z,24.73
2016-11-22T06:00:19.405Z,24.76
2016-11-22T06:01:00.085Z,24.8
2016-11-22T06:01:40.745Z,24.73
2016-11-22T06:02:21.475Z,24.73
2016-11-22T06:03:02.129Z,24.69
2016-11-22T06:03:42.825Z,24.76
2016-11-22T06:04:23.505Z,24.76
2016-11-22T06:05:04.194Z,24.77
2016-11-22T06:05:44.860Z,24.78
2016-11-22T06:06:25.550Z,24.8
2016-11-22T06:07:06.201Z,24.76
2016-11-22T06:07:46.888Z,24.8
2016-11-22T06:08:27.592Z,24.69
2016-11-22T06:09:08.282Z,24.78
2016-11-22T06:09:48.960Z,24.73
2016-11-22T06:10:29.618Z,24.76
2016-11-22T06:11:10.283Z,24.77
2016-11-22T06:11:50.956Z,24.76
2016-11-22T06:12:31.626Z,24.78
2016-11-22T06:13:12.309Z,24.76
2016-11-22T06:13:52.995Z,24.76
2016-11-22T06:14:33.655Z,24.8
2016-11-22T06:15:14.318Z,24.71
2016-11-22T06:15:55.043Z,24.8
2016-11-22T06:16:35.707Z,24.77
2016-11-22T06:17:16.383Z,24.8
2016-11-22T06:17:57.044Z,24.71
2016-11-22T06:18:37.743Z,24.77
2016-11-22T06:19:18.413Z,24.81
2016-11-22T06:19:59.115Z,24.76
2016-11-22T06:20:39.825Z,24.76
2016-11-22T06:21:20.518Z,24.77
2016-11-22T06:22:01.233Z,24.83
2016-11-22T06:22:41.934Z,24.77
2016-11-22T06:23:22.617Z,24.81
2016-11-22T06:24:03.283Z,24.78
2016-11-22T06:24:43.933Z,24.76
2016-11-22T06:25:24.649Z,24.77
2016-11-22T06:26:05.354Z,24.78
2016-11-22T06:26:45.979Z,24.77
2016-11-22T06:27:26.660Z,24.78
2016-11-22T06:28:07.400Z,24.71
2016-11-22T06:28:48.066Z,24.68
2016-11-22T06:29:28.723Z,24.78
2016-11-22T06:30:09.407Z,24.77
2016-11-22T06:30:50.083Z,24.78
2016-11-22T06:31:30.801Z,24.78
2016-11-22T06:32:11.456Z,24.8
2016-11-22T06:32:52.183Z,24.77
2016-11-22T06:33:32.807Z,24.78
2016-11-22T06:34:13.531Z,24.76
2016-11-22T06:34:54.184Z,24.77
2016-11-22T06:35:34.910Z,24.76
2016-11-22T06:36:15.563Z,24.78
2016-11-22T06:36:56.266Z,24.73
2016-11-22T06:37:36.937Z,24.81
2016-11-22T06:38:17.640Z,24.78
2016-11-22T06:38:58.309Z,24.71
2016-11-22T06:39:38.998Z,24.73
2016-11-22T06:40:19.695Z,24.87
2016-11-22T06:41:00.326Z,24.76
2016-11-22T06:41:41.011Z,24.76
2016-11-22T06:42:21.699Z,24.93
2016-11-22T06:43:02.382Z,24.8
2016-11-22T06:43:43.103Z,24.9
2016-11-22T06:44:23.796Z,24.91
2016-11-22T06:45:04.455Z,24.76
2016-11-22T06:45:45.137Z,24.77
2016-11-22T06:46:25.819Z,24.83
2016-11-22T06:47:06.499Z,24.73
2016-11-22T06:47:47.154Z,24.71
2016-11-22T06:48:27.831Z,24.91
2016-11-22T06:49:08.495Z,24.87
2016-11-22T06:49:49.133Z,24.78
2016-11-22T06:50:29.802Z,24.91
2016-11-22T06:51:10.523Z,24.84
2016-11-22T06:51:51.203Z,24.85
2016-11-22T06:52:31.916Z,24.85
2016-11-22T06:53:12.584Z,24.9
2016-11-22T06:53:53.308Z,24.77
2016-11-22T06:54:33.969Z,24.76
2016-11-22T06:55:14.678Z,24.87
2016-11-22T06:55:55.371Z,24.76
2016-11-22T06:56:36.045Z,24.85
2016-11-22T06:57:16.687Z,24.78
2016-11-22T06:57:57.390Z,24.77
2016-11-22T06:58:38.096Z,24.73
2016-11-22T06:59:18.811Z,24.78
2016-11-22T06:59:59.516Z,24.68
2016-11-22T07:00:40.208Z,24.73
2016-11-22T07:01:20.886Z,24.83
2016-11-22T07:02:01.586Z,24.73
2016-11-22T07:02:42.339Z,24.71
2016-11-22T07:03:22.954Z,24.81
2016-11-22T07:04:03.649Z,24.78
2016-11-22T07:04:44.385Z,24.76
2016-11-22T07:05:25.025Z,24.76
2016-11-22T07:06:05.733Z,24.8
2016-11-22T07:06:46.408Z,24.77
2016-11-22T07:07:27.109Z,24.76
2016-11-22T07:08:07.753Z,24.73
2016-11-22T07:08:48.424Z,24.73
2016-11-22T07:09:29.130Z,24.76
2016-11-22T07:10:09.844Z,24.78
2016-11-22T07:10:50.552Z,24.78
2016-11-22T07:11:31.188Z,24.8
2016-11-22T07:12:11.822Z,24.8
2016-11-22T07:12:52.472Z,24.73
2016-11-22T07:13:33.173Z,24.76
2016-11-22T07:14:13.834Z,24.77
2016-11-22T07:14:54.488Z,24.83
2016-11-22T07:15:35.181Z,24.8
2016-11-22T07:16:15.945Z,24.77
2016-11-22T07:16:56.630Z,24.76
2016-11-22T07:17:37.275Z,24.78
2016-11-22T07:18:17.969Z,24.8
2016-11-22T07:18:58.638Z,24.73
2016-11-22T07:19:39.358Z,24.69
2016-11-22T07:20:20.090Z,24.73
2016-11-22T07:21:00.752Z,24.73
2016-11-22T07:21:41.467Z,24.71
2016-11-22T07:22:22.143Z,24.71
2016-11-22T07:23:02.860Z,24.8
2016-11-22T07:23:43.584Z,24.69
2016-11-22T07:24:24.245Z,24.81
2016-11-22T07:25:04.983Z,24.73
2016-11-22T07:25:45.677Z,24.78
2016-11-22T07:26:26.315Z,24.71
2016-11-22T07:27:07.052Z,24.88
2016-11-22T07:27:47.744Z,24.84
2016-11-22T07:28:28.487Z,24.87
2016-11-22T07:29:09.132Z,24.9
2016-11-22T07:29:49.773Z,24.91
2016-11-22T07:30:30.495Z,24.96
2016-11-22T07:31:11.174Z,24.9
2016-11-22T07:31:51.871Z,24.95
2016-11-22T07:32:32.613Z,24.99
2016-11-22T07:33:13.279Z,25.02
2016-11-22T07:33:53.951Z,25.05
2016-11-22T07:34:34.670Z,25.05
2016-11-22T07:35:15.339Z,25
2016-11-22T07:35:55.988Z,25.02
2016-11-22T07:36:36.643Z,25.08
2016-11-22T07:37:17.321Z,25.05
2016-11-22T07:37:58.018Z,25.05
2016-11-22T07:38:38.709Z,25.06
2016-11-22T07:39:19.449Z,24.99
2016-11-22T07:40:00.132Z,25.14
2016-11-22T07:40:40.776Z,25.06
2016-11-22T07:41:21.406Z,25.03
2016-11-22T07:42:02.107Z,25.06
2016-11-22T07:42:42.813Z,25.05
2016-11-22T07:43:23.534Z,25.06
2016-11-22T07:44:04.230Z,25.13
2016-11-22T07:44:44.926Z,25.08
2016-11-22T07:45:25.650Z,25.09
2016-11-22T07:46:06.341Z,25.1
2016-11-22T07:46:47.063Z,25.08
2016-11-22T07:47:27.763Z,25.09
2016-11-22T07:48:08.450Z,25.09
2016-11-22T07:48:49.145Z,25.14
2016-11-22T07:49:29.851Z,25.13
2016-11-22T07:50:10.551Z,25.18
2016-11-22T07:50:51.211Z,25.13
2016-11-22T07:51:31.924Z,25.08
2016-11-22T07:52:12.621Z,25.14
2016-11-22T07:52:53.297Z,25.2
2016-11-22T07:53:34.061Z,25.2
2016-11-22T07:54:14.721Z,25.15
2016-11-22T07:54:55.398Z,25.13
2016-11-22T07:55:36.025Z,25.21
2016-11-22T07:56:16.717Z,25.1
2016-11-22T07:56:57.388Z,25.14
2016-11-22T07:57:38.085Z,25.2
2016-11-22T07:58:18.798Z,25.13
2016-11-22T07:58:59.554Z,25.17
2016-11-22T07:59:40.229Z,25.24
2016-11-22T08:00:20.924Z,25.05
2016-11-22T08:01:01.651Z,25.24
2016-11-22T08:01:42.367Z,25.15
2016-11-22T08:02:23.058Z,25.2
2016-11-22T08:03:03.795Z,25.18
2016-11-22T08:03:44.491Z,25.17
2016-11-22T08:04:25.157Z,25.18
2016-11-22T08:05:05.871Z,25.17
2016-11-22T08:05:46.562Z,25.25
2016-11-22T08:06:27.279Z,25.23
2016-11-22T08:07:07.952Z,25.24
2016-11-22T08:07:48.684Z,25.23
2016-11-22T08:08:29.305Z,25.27
2016-11-22T08:09:09.970Z,25.17
2016-11-22T08:09:50.661Z,25.24
2016-11-22T08:10:31.373Z,25.27
2016-11-22T08:11:12.063Z,25.21
2016-11-22T08:11:52.773Z,25.28
2016-11-22T08:12:33.533Z,25.23
2016-11-22T08:13:14.278Z,25.3
2016-11-22T08:13:54.943Z,25.21
2016-11-22T08:14:35.671Z,25.21
2016-11-22T08:15:16.343Z,25.25
2016-11-22T08:15:57.000Z,25.21
2016-11-22T08:16:37.684Z,25.21
2016-11-22T08:17:18.371Z,25.28
2016-11-22T08:17:59.066Z,25.21
2016-11-22T08:18:39.803Z,25.28
2016-11-22T08:19:20.448Z,25.23
2016-11-22T08:20:01.166Z,25.3
2016-11-22T08:20:41.909Z,25.27
2016-11-22T08:21:22.609Z,25.32
2016-11-22T08:22:03.371Z,25.27
2016-11-22T08:22:44.061Z,25.24
2016-11-22T08:23:24.753Z,25.28
2016-11-22T08:24:05.407Z,25.32
2016-11-22T08:24:46.130Z,25.32
2016-11-22T08:25:26.843Z,25.2
2016-11-22T08:26:07.579Z,25.18
2016-11-22T08:26:48.273Z,25.2
2016-11-22T08:27:28.970Z,25.24
2016-11-22T08:28:09.640Z,25.21
2016-11-22T08:28:50.315Z,25.3
2016-11-22T08:29:31.039Z,25.21
2016-11-22T08:30:11.719Z,25.23
2016-11-22T08:30:52.364Z,25.25
2016-11-22T08:31:33.095Z,25.18
2016-11-22T08:32:13.779Z,25.18
2016-11-22T08:32:54.479Z,25.2
2016-11-22T08:33:35.191Z,25.2
2016-11-22T08:34:15.890Z,25.24
2016-11-22T08:34:56.569Z,25.27
2016-11-22T08:35:37.315Z,25.23
2016-11-22T08:36:17.983Z,25.28
2016-11-22T08:36:58.673Z,25.3
2016-11-22T08:37:39.344Z,25.24
2016-11-22T08:38:20.036Z,25.27
2016-11-22T08:39:00.708Z,25.36
2016-11-22T08:39:41.425Z,25.24
2016-11-22T08:40:22.111Z,25.33
2016-11-22T08:41:02.773Z,25.35
2016-11-22T08:41:43.441Z,25.3
2016-11-22T08:42:24.256Z,25.38
2016-11-22T08:43:04.982Z,25.23
2016-11-22T08:43:45.678Z,25.24
2016-11-22T08:44:26.374Z,25.2
2016-11-22T08:45:07.057Z,25.25
2016-11-22T08:45:47.737Z,25.25
2016-11-22T08:46:28.460Z,25.35